Latest Weather Observations for Lajamanu

IDD60801

Issued at 4:01 pm CST Tuesday 24 January 2017 (issued every 30 minutes, with the page automatically refreshed every 10 minutes)

About weather observations | Map of weather stations | Latest weather observations for NT | Other Formats
Station Details ID: 014829 Name: LAJAMANU AIRPORT Lat: -18.33 Lon: 130.64 Height: 315.6 m
Data from the previous 72 hours. | See also: Recent months at Lajamanu
Date/Time
CST
Temp
°C
App
Temp
°C
Dew
Point
°C
Rel
Hum
%
Delta-T
°C
Wind Press
QNH
hPa
Press
MSL
hPa
Rain since
9am
mm
Dir  Spd
km/h
Gust
km/h
Spd
kts
Gust
kts
24/04:00pm 34.9 35.2 20.8 43 9.6 SSE 20 33 11 18 1002.5 1000.0 0.0
24/03:30pm 34.3 34.6 20.7 45 9.3 SSE 20 32 11 17 1003.2 1000.6 0.0
24/03:00pm 34.3 33.8 21.4 47 8.9 ESE 26 39 14 21 1003.5 1000.9 0.0
24/02:30pm 34.5 34.6 21.9 48 8.7 SE 24 37 13 20 1003.8 1001.2 0.0
24/02:00pm 33.7 34.0 21.5 49 8.4 SE 22 35 12 19 1004.7 1002.1 0.0
24/01:30pm 32.1 33.2 21.3 53 7.4 SE 17 24 9 13 1005.5 1003.0 0.0
24/01:00pm 33.4 34.3 21.5 49 8.1 SSE 19 28 10 15 1006.3 1003.7 0.0
24/12:30pm 32.4 33.5 21.9 54 7.2 S 19 24 10 13 1006.9 1004.3 0.0
24/12:00pm 31.3 32.6 20.9 54 7.0 SSE 15 22 8 12 1007.5 1004.9 0.0
24/11:30am 31.6 33.2 21.5 55 6.9 SSE 15 20 8 11 1007.7 1005.1 0.0
24/11:00am 31.7 33.6 22.1 56 6.6 SE 15 20 8 11 1007.9 1005.3 0.0
24/10:30am 30.0 32.5 21.7 61 5.7 SSE 11 20 6 11 1008.0 1005.5 0.0
24/10:00am 30.2 32.5 22.1 62 5.5 SE 13 17 7 9 1008.4 1005.9 0.0
24/09:30am 30.0 32.9 22.4 63 5.2 SE 11 19 6 10 1008.5 1006.0 0.0
24/09:00am 28.8 31.1 22.1 67 4.6 SSE 13 15 7 8 1008.6 1006.1 0.0
24/08:30am 29.0 31.6 22.0 66 4.8 SE 11 17 6 9 1008.5 1006.0 0.0
24/08:00am 27.9 31.4 22.8 74 3.5 S 9 11 5 6 1008.5 1006.0 0.0
24/07:30am 27.0 30.9 23.0 79 2.8 SSE 7 9 4 5 1008.1 1005.6 0.0
24/07:00am 26.0 30.2 23.1 84 2.0 S 6 7 3 4 1007.6 1005.0 0.0
24/06:30am 25.5 29.6 23.0 86 1.7 SW 6 7 3 4 1007.3 1004.7 0.0
24/06:00am 25.3 30.2 23.0 87 1.6 E 2 6 1 3 1006.8 1004.2 0.0
24/05:30am 25.4 29.7 22.7 85 1.8 E 4 7 2 4 1006.7 1004.1 0.0
24/05:00am 25.6 30.7 22.7 84 2.0 CALM 0 0 0 0 1006.5 1003.9 0.0
24/04:30am 25.8 29.9 22.9 84 2.0 NW 6 7 3 4 1006.5 1003.9 0.0
24/04:00am 25.9 29.9 22.8 83 2.1 NNW 6 7 3 4 1006.6 1004.0 0.0
24/03:30am 26.0 31.1 22.7 82 2.3 CALM 0 0 0 0 1006.6 1004.0 0.0
24/03:00am 26.2 29.9 22.3 79 2.7 N 6 9 3 5 1006.3 1003.7 0.0
24/02:30am 26.5 29.5 21.9 76 3.1 NE 9 13 5 7 1005.9 1003.4 0.0
24/02:00am 27.2 29.2 21.5 71 3.8 E 13 20 7 11 1006.4 1003.8 0.0
24/01:30am 27.2 31.1 21.9 73 3.6 NE 4 7 2 4 1007.1 1004.5 0.0
24/01:00am 27.4 31.0 22.1 73 3.6 ESE 6 7 3 4 1007.2 1004.6 0.0
24/12:30am 27.6 31.3 22.5 74 3.5 ESE 7 9 4 5 1007.3 1004.7 0.0
24/12:00am 27.9 32.8 22.4 72 3.8 CALM 0 0 0 0 1007.4 1004.8 0.0
 
Date/Time
CST
Temp
°C
App
Temp
°C
Dew
Point
°C
Rel
Hum
%
Delta-T
°C
Wind Press
QNH
hPa
Press
MSL
hPa
Rain since
9am
mm
Dir  Spd
km/h
Gust
km/h
Spd
kts
Gust
kts
23/11:30pm 28.1 32.1 22.8 73 3.7 E 6 9 3 5 1007.7 1005.1 0.0
23/11:00pm 28.5 31.4 22.5 70 4.1 ENE 11 19 6 10 1007.7 1005.1 0.0
23/10:30pm 28.9 31.9 22.6 69 4.3 ENE 11 15 6 8 1007.7 1005.1 0.0
23/10:00pm 29.3 32.2 21.8 64 5.1 E 9 15 5 8 1007.3 1004.7 0.0
23/09:30pm 29.7 31.7 21.6 61 5.5 ENE 13 20 7 11 1007.0 1004.4 0.0
23/09:00pm 30.4 31.6 21.5 59 6.1 ESE 17 22 9 12 1006.5 1003.9 0.0
23/08:30pm 31.0 31.9 21.5 57 6.5 ESE 19 26 10 14 1006.2 1003.6 0.0
23/08:00pm 31.7 34.9 22.4 58 6.4 SE 9 13 5 7 1005.2 1002.7 0.0
23/07:30pm 32.4 35.0 21.9 54 7.2 SE 11 13 6 7 1005.0 1002.4 0.0
23/07:00pm 33.2 35.5 21.4 50 8.1 ESE 11 13 6 7 1004.7 1002.1 0.0
23/06:30pm 33.7 35.5 21.2 48 8.6 SE 13 20 7 11 1004.1 1001.5 0.0
23/06:00pm 35.0 36.2 19.8 41 10.3 SE 13 17 7 9 1003.5 1000.9 0.0
23/05:30pm 35.3 35.8 19.2 38 10.8 SE 15 20 8 11 1003.3 1000.7 0.0
23/05:00pm 35.4 36.7 20.9 42 9.9 SE 15 20 8 11 1003.0 1000.4 0.0
23/04:30pm 35.0 35.6 19.4 40 10.5 SE 15 20 8 11 1003.0 1000.4 0.0
23/04:00pm 35.7 37.3 20.8 42 10.2 SE 13 20 7 11 1003.7 1001.1 0.0
23/03:30pm 35.0 36.5 20.5 42 9.9 SSE 13 19 7 10 1004.4 1001.8 0.0
23/03:00pm 35.0 37.3 21.3 45 9.4 S 11 17 6 9 1005.0 1002.4 0.0
23/02:30pm 34.7 37.8 22.1 48 8.7 SE 9 17 5 9 1005.2 1002.7 0.0
23/02:00pm 34.6 37.4 23.0 51 8.1 SE 13 22 7 12 1005.8 1003.3 0.0
23/01:30pm 33.6 36.0 23.0 54 7.4 SSE 15 26 8 14 1006.3 1003.7 0.0
23/01:00pm 33.1 35.2 23.1 55 7.0 SSE 17 28 9 15 1006.8 1004.2 0.0
23/12:30pm 33.0 35.6 22.7 54 7.2 SE 13 20 7 11 1007.0 1004.4 0.0
23/12:00pm 32.1 34.3 21.9 54 7.0 SSE 13 20 7 11 1007.2 1004.6 0.0
23/11:30am 31.2 33.8 21.9 57 6.4 S 11 17 6 9 1007.6 1005.0 0.0
23/11:00am 30.4 33.1 22.8 64 5.3 S 13 19 7 10 1008.0 1005.5 0.0
23/10:30am 29.4 32.1 22.9 68 4.5 SSW 13 17 7 9 1008.4 1005.9 0.0
23/10:00am 28.2 30.8 22.0 69 4.2 SW 11 15 6 8 1008.7 1006.2 0.0
23/09:30am 27.2 29.7 22.4 75 3.3 SW 13 17 7 9 1008.7 1006.2 0.0
23/09:00am 26.2 29.1 21.8 77 3.0 WSW 9 15 5 8 1008.9 1006.4 8.6
23/08:30am 25.3 28.4 22.2 83 2.1 W 9 13 5 7 1009.0 1006.5 8.6
23/08:00am 24.7 27.3 22.0 85 1.8 WSW 11 17 6 9 1008.6 1006.1 8.6
23/07:30am 24.3 27.4 22.2 88 1.4 WSW 9 13 5 7 1008.5 1006.0 8.6
23/07:00am 24.2 27.4 22.3 89 1.3 W 9 13 5 7 1008.2 1005.7 8.6
23/06:30am 24.2 28.1 22.5 90 1.2 W 6 9 3 5 1007.7 1005.1 8.4
23/06:00am 24.3 27.9 22.4 89 1.3 W 7 13 4 7 1007.6 1005.0 8.4
23/05:30am 24.3 27.6 22.6 90 1.2 W 9 13 5 7 1007.0 1004.4 8.4
23/05:00am 24.4 27.8 22.7 90 1.2 WSW 9 13 5 7 1006.9 1004.3 8.4
23/04:30am 24.7 27.8 22.9 90 1.2 SW 11 15 6 8 1006.5 1003.9 8.4
23/04:00am 24.6 27.4 23.0 91 1.1 SW 13 17 7 9 1005.8 1003.3 8.4
23/03:30am 24.5 28.3 22.8 90 1.2 W 7 11 4 6 1005.6 1003.1 8.4
23/03:00am 24.5 27.6 22.8 90 1.2 SW 11 15 6 8 1006.4 1003.8 8.4
23/02:30am 24.2 27.0 22.3 89 1.3 NW 11 13 6 7 1006.2 1003.6 8.4
23/02:00am 24.1 27.7 22.0 88 1.4 NNE 6 9 3 5 1007.4 1004.8 8.4
23/01:30am 23.9 27.4 21.8 88 1.4 E 6 7 3 4 1008.4 1005.9 7.6
23/01:00am 24.6 26.5 22.1 86 1.7 ENE 15 20 8 11 1008.7 1006.2 7.0
23/12:30am 26.1 27.8 22.4 80 2.5 ENE 17 24 9 13 1009.1 1006.6 0.4
23/12:00am 26.4 27.8 22.5 79 2.7 ENE 19 26 10 14 1009.0 1006.5 0.4
 
Date/Time
CST
Temp
°C
App
Temp
°C
Dew
Point
°C
Rel
Hum
%
Delta-T
°C
Wind Press
QNH
hPa
Press
MSL
hPa
Rain since
9am
mm
Dir  Spd
km/h
Gust
km/h
Spd
kts
Gust
kts
22/11:30pm 27.5 29.1 22.2 73 3.6 N 17 26 9 14 1008.4 1005.9 0.4
22/11:00pm 27.8 31.1 22.5 73 3.6 NNW 9 11 5 6 1008.6 1006.1 0.4
22/10:30pm 27.4 30.5 22.1 73 3.6 N 9 13 5 7 1008.3 1005.8 0.4
22/10:00pm 27.4 30.3 22.4 74 3.4 N 11 20 6 11 1008.3 1005.8 0.4
22/09:30pm 27.0 30.8 22.8 78 2.9 W 7 11 4 6 1007.4 1004.8 0.4
22/09:00pm 27.0 30.1 22.2 75 3.3 WSW 9 13 5 7 1007.3 1004.7 0.4
22/08:30pm 27.3 29.3 21.6 71 3.9 SSW 13 19 7 10 1007.2 1004.6 0.4
22/08:00pm 27.5 29.8 22.0 72 3.7 SSW 13 19 7 10 1006.8 1004.2 0.4
22/07:30pm 26.9 27.0 21.9 74 3.4 SSE 24 35 13 19 1006.4 1003.8 0.2
22/07:00pm 26.4 26.2 22.0 77 3.0 SE 26 41 14 22 1006.6 1004.0 0.2
22/06:45pm 29.9 28.5 20.5 57 6.3 ESE 28 43 15 23 1006.3 1003.7 0.0
22/06:30pm 33.8 35.1 20.9 46 8.8 SSE 15 22 8 12 1005.3 1002.8 0.0
22/06:00pm 35.9 37.1 19.8 39 10.9 S 13 15 7 8 1004.7 1002.1 0.0
22/05:30pm 35.7 37.0 19.2 38 11.1 SSE 11 15 6 8 1004.6 1002.0 0.0
22/05:00pm 35.9 36.3 19.8 39 10.9 S 17 24 9 13 1004.3 1001.7 0.0
22/04:30pm 35.2 35.8 18.7 37 11.0 S 13 19 7 10 1004.6 1002.0 0.0
22/04:00pm 35.0 36.2 19.0 39 10.6 SSW 11 17 6 9 1004.8 1002.2 0.0
22/03:30pm 36.1 38.1 19.9 38 11.0 SSE 9 15 5 8 1005.4 1002.9 0.0
22/03:00pm 35.7 37.7 20.0 39 10.6 S 9 13 5 7 1005.9 1003.4 0.0
22/02:30pm 35.4 36.5 19.7 39 10.6 SE 13 20 7 11 1006.6 1004.0 0.0
22/02:00pm 34.9 36.7 21.9 46 9.0 SSE 15 22 8 12 1007.0 1004.4 0.0
22/01:30pm 34.5 37.1 21.9 48 8.7 SSE 11 20 6 11 1007.6 1005.0 0.0
22/01:00pm 34.5 36.9 22.2 48 8.5 SSW 13 24 7 13 1008.2 1005.7 0.0
22/12:30pm 33.8 35.5 21.6 49 8.4 S 15 24 8 13 1008.9 1006.4 0.0
22/12:00pm 33.3 34.6 22.4 52 7.6 S 19 24 10 13 1009.3 1006.8 0.0
22/11:30am 32.8 34.8 22.3 54 7.3 S 15 20 8 11 1009.9 1007.3 0.0
22/11:00am 33.0 34.5 22.7 54 7.2 S 19 24 10 13 1010.3 1007.7 0.0
22/10:30am 32.2 34.0 22.6 57 6.7 SSW 17 24 9 13 1010.5 1007.9 0.0
22/10:00am 30.9 31.7 21.4 57 6.5 SSW 19 24 10 13 1010.7 1008.1 0.0
22/09:30am 30.3 31.9 22.2 62 5.6 SSW 17 24 9 13 1010.7 1008.1 0.0
22/09:00am 29.2 30.4 22.2 66 4.8 SW 19 24 10 13 1010.6 1008.0 0.0
22/08:30am 28.0 30.1 22.5 72 3.8 SW 15 20 8 11 1010.5 1007.9 0.0
22/08:00am 27.3 29.8 23.1 78 2.9 SW 15 20 8 11 1010.3 1007.7 0.0
22/07:30am 26.1 29.8 23.2 84 2.0 WSW 9 15 5 8 1010.0 1007.4 0.0
22/07:00am 25.4 29.3 22.9 86 1.7 WSW 7 9 4 5 1009.7 1007.1 0.0
22/06:30am 25.3 29.0 22.6 85 1.8 W 7 11 4 6 1009.5 1006.9 0.0
22/06:00am 25.5 29.3 22.4 83 2.1 W 6 9 3 5 1009.2 1006.7 0.0
22/05:30am 25.8 29.0 22.3 81 2.4 W 9 13 5 7 1008.8 1006.3 0.0
22/05:00am 26.1 29.3 22.4 80 2.5 WNW 9 15 5 8 1008.5 1006.0 0.0
22/04:30am 26.4 29.8 23.3 83 2.1 NW 11 20 6 11 1008.4 1005.9 0.0
22/04:00am 26.4 30.2 23.5 84 2.0 WNW 9 13 5 7 1008.4 1005.9 0.0
22/03:30am 26.6 30.1 23.5 83 2.1 NW 11 15 6 8 1008.4 1005.9 0.0
22/03:00am 26.8 30.6 23.5 82 2.3 WNW 9 13 5 7 1008.5 1006.0 0.0
22/02:30am 26.9 30.6 23.2 80 2.6 WNW 9 13 5 7 1008.5 1006.0 0.0
22/02:00am 27.1 30.7 23.1 79 2.8 WNW 9 11 5 6 1009.0 1006.5 0.0
22/01:30am 27.3 30.8 22.9 77 3.0 WNW 9 11 5 6 1009.0 1006.5 0.0
22/01:00am 27.4 31.0 23.0 77 3.0 NW 9 13 5 7 1009.0 1006.5 0.0
22/12:30am 27.6 31.1 22.8 75 3.3 NW 9 15 5 8 1009.6 1007.0 0.0
22/12:00am 27.7 30.9 23.1 76 3.2 NW 11 15 6 8 1010.0 1007.4 0.0
 
Date/Time
CST
Temp
°C
App
Temp
°C
Dew
Point
°C
Rel
Hum
%
Delta-T
°C
Wind Press
QNH
hPa
Press
MSL
hPa
Rain since
9am
mm
Dir  Spd
km/h
Gust
km/h
Spd
kts
Gust
kts
21/11:30pm 27.8 31.4 23.0 75 3.3 NW 9 15 5 8 1010.4 1007.8 0.0
21/11:00pm 27.9 31.5 23.1 75 3.3 NW 9 13 5 7 1010.2 1007.6 0.0
21/10:30pm 28.1 31.7 22.3 70 4.0 NW 7 11 4 6 1009.8 1007.2 0.0
21/10:00pm 28.5 32.2 22.5 70 4.1 WNW 7 11 4 6 1009.1 1006.6 0.0
21/09:30pm 28.9 32.1 22.4 68 4.5 NW 9 15 5 8 1008.8 1006.3 0.0
21/09:00pm 29.3 31.9 22.0 64 5.0 NW 11 15 6 8 1008.3 1005.8 0.0
21/08:30pm 29.6 32.7 22.1 64 5.1 WNW 9 11 5 6 1008.3 1005.8 0.0
21/08:00pm 30.3 33.2 22.5 63 5.4 NNW 11 15 6 8 1007.9 1005.3 0.0
21/07:30pm 31.0 34.1 22.9 62 5.6 N 11 17 6 9 1007.9 1005.3 0.0
21/07:00pm 31.5 35.0 22.8 60 6.0 NNW 9 11 5 6 1006.9 1004.3 0.0
21/06:30pm 32.3 35.0 22.1 55 7.0 N 11 15 6 8 1006.7 1004.1 0.0
21/06:00pm 33.4 35.5 20.2 46 8.9 NNW 9 13 5 7 1006.2 1003.6 0.0
21/05:30pm 34.0 36.9 21.1 47 8.8 WNW 7 11 4 6 1005.7 1003.2 0.0
21/05:00pm 33.8 37.0 21.6 49 8.4 WNW 7 13 4 7 1005.7 1003.2 0.0
21/04:30pm 33.4 37.3 22.5 52 7.6 NW 6 9 3 5 1006.2 1003.6 0.0

Other Formats:

Comma delimited format used in spreadsheet applications
http://www.bom.gov.au/fwo/IDD60801/IDD60801.94231.axf

JavaScript Object Notation format (JSON) in row-major order
http://www.bom.gov.au/fwo/IDD60801/IDD60801.94231.json